sensor_id;sensor_type;location;lat;lon;timestamp;P1;durP1;ratioP1;P2;durP2;ratioP2
75386;SDS011;63966;47.914;22.266;2023-01-31T00:02:13;34.33;;;14.23;;
75386;SDS011;63966;47.914;22.266;2023-01-31T00:05:16;37.83;;;16.20;;
75386;SDS011;63966;47.914;22.266;2023-01-31T00:08:21;33.05;;;15.93;;
75386;SDS011;63966;47.914;22.266;2023-01-31T00:11:25;36.78;;;15.27;;
75386;SDS011;63966;47.914;22.266;2023-01-31T00:14:30;35.60;;;15.35;;
75386;SDS011;63966;47.914;22.266;2023-01-31T00:17:33;33.67;;;13.80;;
75386;SDS011;63966;47.914;22.266;2023-01-31T00:20:37;32.63;;;13.93;;
75386;SDS011;63966;47.914;22.266;2023-01-31T00:23:41;30.08;;;13.95;;
75386;SDS011;63966;47.914;22.266;2023-01-31T00:26:45;34.05;;;14.50;;
75386;SDS011;63966;47.914;22.266;2023-01-31T00:29:49;30.00;;;12.05;;
75386;SDS011;63966;47.914;22.266;2023-01-31T00:32:53;32.50;;;13.97;;
75386;SDS011;63966;47.914;22.266;2023-01-31T00:36:01;24.30;;;12.15;;
75386;SDS011;63966;47.914;22.266;2023-01-31T00:39:06;26.70;;;12.02;;
75386;SDS011;63966;47.914;22.266;2023-01-31T00:42:10;23.52;;;10.85;;
75386;SDS011;63966;47.914;22.266;2023-01-31T00:45:15;27.35;;;13.13;;
75386;SDS011;63966;47.914;22.266;2023-01-31T00:48:20;34.63;;;15.33;;
75386;SDS011;63966;47.914;22.266;2023-01-31T00:51:24;26.52;;;12.18;;
75386;SDS011;63966;47.914;22.266;2023-01-31T00:54:28;32.88;;;15.25;;
75386;SDS011;63966;47.914;22.266;2023-01-31T00:57:31;33.67;;;15.15;;
75386;SDS011;63966;47.914;22.266;2023-01-31T01:00:36;28.90;;;13.43;;
75386;SDS011;63966;47.914;22.266;2023-01-31T01:03:40;36.10;;;14.68;;
75386;SDS011;63966;47.914;22.266;2023-01-31T01:06:45;29.10;;;12.95;;
75386;SDS011;63966;47.914;22.266;2023-01-31T01:09:49;26.70;;;10.95;;
75386;SDS011;63966;47.914;22.266;2023-01-31T01:12:53;33.47;;;15.68;;
75386;SDS011;63966;47.914;22.266;2023-01-31T01:15:57;34.67;;;15.53;;
75386;SDS011;63966;47.914;22.266;2023-01-31T01:19:06;31.92;;;13.93;;
75386;SDS011;63966;47.914;22.266;2023-01-31T01:22:13;30.30;;;14.15;;
75386;SDS011;63966;47.914;22.266;2023-01-31T01:25:17;31.58;;;13.43;;
75386;SDS011;63966;47.914;22.266;2023-01-31T01:28:21;28.20;;;11.20;;
75386;SDS011;63966;47.914;22.266;2023-01-31T01:31:25;26.25;;;12.02;;
75386;SDS011;63966;47.914;22.266;2023-01-31T01:34:32;27.15;;;12.50;;
75386;SDS011;63966;47.914;22.266;2023-01-31T01:37:36;25.48;;;12.20;;
75386;SDS011;63966;47.914;22.266;2023-01-31T01:40:41;25.37;;;11.60;;
75386;SDS011;63966;47.914;22.266;2023-01-31T01:43:46;26.05;;;11.70;;
75386;SDS011;63966;47.914;22.266;2023-01-31T01:46:51;24.13;;;11.32;;
75386;SDS011;63966;47.914;22.266;2023-01-31T01:49:57;30.42;;;13.63;;
75386;SDS011;63966;47.914;22.266;2023-01-31T01:53:24;26.10;;;12.20;;
75386;SDS011;63966;47.914;22.266;2023-01-31T01:56:33;26.70;;;11.73;;
75386;SDS011;63966;47.914;22.266;2023-01-31T01:59:44;27.23;;;11.18;;
75386;SDS011;63966;47.914;22.266;2023-01-31T02:03:03;26.33;;;11.80;;
75386;SDS011;63966;47.914;22.266;2023-01-31T02:06:08;26.98;;;12.10;;
75386;SDS011;63966;47.914;22.266;2023-01-31T02:09:24;28.43;;;11.83;;
75386;SDS011;63966;47.914;22.266;2023-01-31T02:12:40;23.38;;;11.57;;
75386;SDS011;63966;47.914;22.266;2023-01-31T02:15:44;24.50;;;11.68;;
75386;SDS011;63966;47.914;22.266;2023-01-31T02:18:48;26.00;;;11.57;;
75386;SDS011;63966;47.914;22.266;2023-01-31T02:38:19;28.67;;;12.82;;
75386;SDS011;63966;47.914;22.266;2023-01-31T02:41:29;26.58;;;11.95;;
75386;SDS011;63966;47.914;22.266;2023-01-31T02:45:09;26.83;;;11.80;;
75386;SDS011;63966;47.914;22.266;2023-01-31T02:51:53;23.63;;;10.65;;
75386;SDS011;63966;47.914;22.266;2023-01-31T02:55:22;25.15;;;11.88;;
75386;SDS011;63966;47.914;22.266;2023-01-31T02:58:57;25.38;;;11.05;;
75386;SDS011;63966;47.914;22.266;2023-01-31T03:02:10;26.17;;;12.38;;
75386;SDS011;63966;47.914;22.266;2023-01-31T03:05:15;29.93;;;12.03;;
75386;SDS011;63966;47.914;22.266;2023-01-31T03:08:20;29.20;;;11.85;;
75386;SDS011;63966;47.914;22.266;2023-01-31T03:11:25;27.10;;;12.05;;
75386;SDS011;63966;47.914;22.266;2023-01-31T03:15:29;26.50;;;11.40;;
75386;SDS011;63966;47.914;22.266;2023-01-31T03:18:09;22.00;;;10.17;;
75386;SDS011;63966;47.914;22.266;2023-01-31T03:21:18;25.25;;;11.68;;
75386;SDS011;63966;47.914;22.266;2023-01-31T03:24:31;26.58;;;11.27;;
75386;SDS011;63966;47.914;22.266;2023-01-31T03:27:36;25.42;;;10.50;;
75386;SDS011;63966;47.914;22.266;2023-01-31T03:30:51;24.40;;;10.50;;
75386;SDS011;63966;47.914;22.266;2023-01-31T03:33:59;23.50;;;10.52;;
75386;SDS011;63966;47.914;22.266;2023-01-31T03:37:10;24.50;;;11.43;;
75386;SDS011;63966;47.914;22.266;2023-01-31T03:40:26;22.52;;;11.57;;
75386;SDS011;63966;47.914;22.266;2023-01-31T03:43:38;22.53;;;10.50;;
75386;SDS011;63966;47.914;22.266;2023-01-31T03:46:51;24.10;;;10.75;;
75386;SDS011;63966;47.914;22.266;2023-01-31T03:50:02;23.10;;;12.25;;
75386;SDS011;63966;47.914;22.266;2023-01-31T03:53:26;26.63;;;11.15;;
75386;SDS011;63966;47.914;22.266;2023-01-31T03:56:43;27.80;;;11.93;;
75386;SDS011;63966;47.914;22.266;2023-01-31T03:59:56;26.92;;;10.20;;
75386;SDS011;63966;47.914;22.266;2023-01-31T04:06:25;27.23;;;11.27;;
75386;SDS011;63966;47.914;22.266;2023-01-31T04:09:29;25.20;;;11.23;;
75386;SDS011;63966;47.914;22.266;2023-01-31T04:12:34;25.13;;;10.93;;
75386;SDS011;63966;47.914;22.266;2023-01-31T04:15:38;25.52;;;11.82;;
75386;SDS011;63966;47.914;22.266;2023-01-31T04:18:42;27.10;;;11.33;;
75386;SDS011;63966;47.914;22.266;2023-01-31T04:21:46;28.27;;;12.38;;
75386;SDS011;63966;47.914;22.266;2023-01-31T04:24:49;45.05;;;19.05;;
75386;SDS011;63966;47.914;22.266;2023-01-31T04:27:53;49.92;;;20.63;;
75386;SDS011;63966;47.914;22.266;2023-01-31T04:30:56;33.90;;;15.83;;
75386;SDS011;63966;47.914;22.266;2023-01-31T04:34:00;30.30;;;13.18;;
75386;SDS011;63966;47.914;22.266;2023-01-31T04:37:03;30.85;;;13.35;;
75386;SDS011;63966;47.914;22.266;2023-01-31T04:40:07;26.30;;;12.43;;
75386;SDS011;63966;47.914;22.266;2023-01-31T04:43:11;26.63;;;11.63;;
75386;SDS011;63966;47.914;22.266;2023-01-31T04:46:14;24.27;;;10.43;;
75386;SDS011;63966;47.914;22.266;2023-01-31T04:49:18;26.67;;;11.38;;
75386;SDS011;63966;47.914;22.266;2023-01-31T04:52:21;74.85;;;20.98;;
75386;SDS011;63966;47.914;22.266;2023-01-31T04:55:26;34.67;;;13.93;;
75386;SDS011;63966;47.914;22.266;2023-01-31T04:58:29;28.42;;;12.38;;
75386;SDS011;63966;47.914;22.266;2023-01-31T05:01:33;26.60;;;12.18;;
75386;SDS011;63966;47.914;22.266;2023-01-31T05:04:36;31.83;;;12.52;;
75386;SDS011;63966;47.914;22.266;2023-01-31T05:07:40;30.98;;;13.20;;
75386;SDS011;63966;47.914;22.266;2023-01-31T05:10:45;29.05;;;12.55;;
75386;SDS011;63966;47.914;22.266;2023-01-31T05:13:49;27.10;;;12.15;;
75386;SDS011;63966;47.914;22.266;2023-01-31T05:16:53;26.67;;;11.50;;
75386;SDS011;63966;47.914;22.266;2023-01-31T05:19:56;38.88;;;15.70;;
75386;SDS011;63966;47.914;22.266;2023-01-31T05:23:00;40.97;;;16.58;;
75386;SDS011;63966;47.914;22.266;2023-01-31T05:26:04;25.25;;;12.00;;
75386;SDS011;63966;47.914;22.266;2023-01-31T05:29:08;23.00;;;10.27;;
75386;SDS011;63966;47.914;22.266;2023-01-31T05:32:12;29.65;;;12.43;;
75386;SDS011;63966;47.914;22.266;2023-01-31T05:35:16;26.95;;;11.38;;
75386;SDS011;63966;47.914;22.266;2023-01-31T05:38:20;26.90;;;11.93;;
75386;SDS011;63966;47.914;22.266;2023-01-31T05:41:24;28.00;;;12.10;;
75386;SDS011;63966;47.914;22.266;2023-01-31T05:44:27;28.13;;;11.70;;
75386;SDS011;63966;47.914;22.266;2023-01-31T05:47:31;32.97;;;14.13;;
75386;SDS011;63966;47.914;22.266;2023-01-31T05:50:35;28.38;;;13.05;;
75386;SDS011;63966;47.914;22.266;2023-01-31T05:53:44;26.77;;;12.50;;
75386;SDS011;63966;47.914;22.266;2023-01-31T05:56:49;24.73;;;11.68;;
75386;SDS011;63966;47.914;22.266;2023-01-31T05:59:53;24.85;;;11.77;;
75386;SDS011;63966;47.914;22.266;2023-01-31T06:02:57;29.05;;;12.35;;
75386;SDS011;63966;47.914;22.266;2023-01-31T06:06:01;26.67;;;11.97;;
75386;SDS011;63966;47.914;22.266;2023-01-31T06:09:06;26.77;;;12.00;;
75386;SDS011;63966;47.914;22.266;2023-01-31T06:12:11;23.80;;;11.65;;
75386;SDS011;63966;47.914;22.266;2023-01-31T06:15:16;28.05;;;12.20;;
75386;SDS011;63966;47.914;22.266;2023-01-31T06:18:20;28.93;;;12.30;;
75386;SDS011;63966;47.914;22.266;2023-01-31T06:21:24;29.48;;;13.27;;
75386;SDS011;63966;47.914;22.266;2023-01-31T06:24:27;24.90;;;11.88;;
75386;SDS011;63966;47.914;22.266;2023-01-31T06:27:32;26.75;;;12.80;;
75386;SDS011;63966;47.914;22.266;2023-01-31T06:30:35;29.10;;;12.82;;
75386;SDS011;63966;47.914;22.266;2023-01-31T06:33:39;32.10;;;13.70;;
75386;SDS011;63966;47.914;22.266;2023-01-31T06:36:49;27.05;;;12.73;;
75386;SDS011;63966;47.914;22.266;2023-01-31T06:39:52;72.65;;;30.75;;
75386;SDS011;63966;47.914;22.266;2023-01-31T06:42:57;64.65;;;28.02;;
75386;SDS011;63966;47.914;22.266;2023-01-31T06:46:00;53.80;;;23.23;;
75386;SDS011;63966;47.914;22.266;2023-01-31T06:49:05;41.28;;;19.13;;
75386;SDS011;63966;47.914;22.266;2023-01-31T06:52:09;52.95;;;25.27;;
75386;SDS011;63966;47.914;22.266;2023-01-31T06:55:16;73.95;;;28.13;;
75386;SDS011;63966;47.914;22.266;2023-01-31T06:58:20;73.77;;;29.90;;
75386;SDS011;63966;47.914;22.266;2023-01-31T07:01:24;86.40;;;32.67;;
75386;SDS011;63966;47.914;22.266;2023-01-31T07:04:29;64.40;;;25.88;;
75386;SDS011;63966;47.914;22.266;2023-01-31T07:07:33;36.13;;;16.60;;
75386;SDS011;63966;47.914;22.266;2023-01-31T07:10:37;38.00;;;15.63;;
75386;SDS011;63966;47.914;22.266;2023-01-31T07:13:41;42.10;;;17.60;;
75386;SDS011;63966;47.914;22.266;2023-01-31T07:16:47;32.45;;;16.02;;
75386;SDS011;63966;47.914;22.266;2023-01-31T07:19:51;31.27;;;13.68;;
75386;SDS011;63966;47.914;22.266;2023-01-31T07:22:55;50.03;;;21.80;;
75386;SDS011;63966;47.914;22.266;2023-01-31T07:26:01;32.43;;;15.30;;
75386;SDS011;63966;47.914;22.266;2023-01-31T07:29:06;30.80;;;13.35;;
75386;SDS011;63966;47.914;22.266;2023-01-31T07:32:11;31.38;;;12.38;;
75386;SDS011;63966;47.914;22.266;2023-01-31T07:35:18;25.38;;;11.00;;
75386;SDS011;63966;47.914;22.266;2023-01-31T07:38:22;23.90;;;10.68;;
75386;SDS011;63966;47.914;22.266;2023-01-31T07:41:26;28.90;;;13.85;;
75386;SDS011;63966;47.914;22.266;2023-01-31T07:44:30;33.67;;;15.10;;
75386;SDS011;63966;47.914;22.266;2023-01-31T07:47:35;31.08;;;13.90;;
75386;SDS011;63966;47.914;22.266;2023-01-31T07:50:39;31.47;;;15.50;;
75386;SDS011;63966;47.914;22.266;2023-01-31T07:53:42;30.98;;;14.90;;
75386;SDS011;63966;47.914;22.266;2023-01-31T07:56:46;27.77;;;13.68;;
75386;SDS011;63966;47.914;22.266;2023-01-31T07:59:49;30.25;;;14.98;;
75386;SDS011;63966;47.914;22.266;2023-01-31T08:02:53;30.83;;;16.33;;
75386;SDS011;63966;47.914;22.266;2023-01-31T08:06:15;29.67;;;14.53;;
75386;SDS011;63966;47.914;22.266;2023-01-31T08:09:21;31.02;;;14.35;;
75386;SDS011;63966;47.914;22.266;2023-01-31T08:12:26;27.92;;;14.18;;
75386;SDS011;63966;47.914;22.266;2023-01-31T08:15:30;31.38;;;16.17;;
75386;SDS011;63966;47.914;22.266;2023-01-31T08:18:35;27.90;;;14.80;;
75386;SDS011;63966;47.914;22.266;2023-01-31T08:21:39;29.53;;;13.43;;
75386;SDS011;63966;47.914;22.266;2023-01-31T08:24:43;25.23;;;13.60;;
75386;SDS011;63966;47.914;22.266;2023-01-31T08:27:47;28.98;;;13.25;;
75386;SDS011;63966;47.914;22.266;2023-01-31T08:30:50;27.98;;;13.27;;
75386;SDS011;63966;47.914;22.266;2023-01-31T08:34:09;22.70;;;12.18;;
75386;SDS011;63966;47.914;22.266;2023-01-31T08:37:13;25.40;;;11.63;;
75386;SDS011;63966;47.914;22.266;2023-01-31T08:40:19;21.90;;;11.52;;
75386;SDS011;63966;47.914;22.266;2023-01-31T08:43:23;27.00;;;13.18;;
75386;SDS011;63966;47.914;22.266;2023-01-31T08:46:28;28.85;;;14.07;;
75386;SDS011;63966;47.914;22.266;2023-01-31T08:49:33;34.08;;;15.63;;
75386;SDS011;63966;47.914;22.266;2023-01-31T08:52:38;29.87;;;15.73;;
75386;SDS011;63966;47.914;22.266;2023-01-31T08:55:42;33.80;;;15.40;;
75386;SDS011;63966;47.914;22.266;2023-01-31T08:58:46;30.83;;;14.90;;
75386;SDS011;63966;47.914;22.266;2023-01-31T09:01:50;28.38;;;13.82;;
75386;SDS011;63966;47.914;22.266;2023-01-31T09:04:53;29.30;;;14.82;;
75386;SDS011;63966;47.914;22.266;2023-01-31T09:07:57;35.40;;;17.20;;
75386;SDS011;63966;47.914;22.266;2023-01-31T09:11:01;30.30;;;16.90;;
75386;SDS011;63966;47.914;22.266;2023-01-31T09:14:05;36.20;;;18.15;;
75386;SDS011;63966;47.914;22.266;2023-01-31T09:17:09;31.65;;;17.50;;
75386;SDS011;63966;47.914;22.266;2023-01-31T09:20:13;37.33;;;18.60;;
75386;SDS011;63966;47.914;22.266;2023-01-31T09:23:17;33.97;;;15.63;;
75386;SDS011;63966;47.914;22.266;2023-01-31T09:26:22;29.13;;;14.03;;
75386;SDS011;63966;47.914;22.266;2023-01-31T09:29:26;27.85;;;14.63;;
75386;SDS011;63966;47.914;22.266;2023-01-31T09:32:31;27.70;;;14.18;;
75386;SDS011;63966;47.914;22.266;2023-01-31T09:35:35;24.73;;;13.45;;
75386;SDS011;63966;47.914;22.266;2023-01-31T09:38:39;23.57;;;12.87;;
75386;SDS011;63966;47.914;22.266;2023-01-31T09:41:44;26.60;;;13.88;;
75386;SDS011;63966;47.914;22.266;2023-01-31T09:48:17;22.23;;;11.85;;
75386;SDS011;63966;47.914;22.266;2023-01-31T09:51:39;25.88;;;13.57;;
75386;SDS011;63966;47.914;22.266;2023-01-31T09:54:43;26.00;;;14.40;;
75386;SDS011;63966;47.914;22.266;2023-01-31T09:58:02;21.45;;;11.02;;
75386;SDS011;63966;47.914;22.266;2023-01-31T10:08:04;17.80;;;9.45;;
75386;SDS011;63966;47.914;22.266;2023-01-31T10:14:49;18.20;;;9.40;;
75386;SDS011;63966;47.914;22.266;2023-01-31T10:18:01;18.20;;;9.63;;
75386;SDS011;63966;47.914;22.266;2023-01-31T10:21:18;16.10;;;8.23;;
75386;SDS011;63966;47.914;22.266;2023-01-31T10:24:34;18.00;;;8.43;;
75386;SDS011;63966;47.914;22.266;2023-01-31T10:27:50;12.73;;;7.27;;
75386;SDS011;63966;47.914;22.266;2023-01-31T10:34:09;16.85;;;7.30;;
75386;SDS011;63966;47.914;22.266;2023-01-31T10:40:47;17.25;;;7.88;;
75386;SDS011;63966;47.914;22.266;2023-01-31T10:44:22;17.30;;;8.10;;
75386;SDS011;63966;47.914;22.266;2023-01-31T10:47:51;14.13;;;6.90;;
75386;SDS011;63966;47.914;22.266;2023-01-31T10:57:33;10.13;;;3.53;;
75386;SDS011;63966;47.914;22.266;2023-01-31T11:00:36;8.63;;;3.67;;
75386;SDS011;63966;47.914;22.266;2023-01-31T11:03:44;11.95;;;3.67;;
75386;SDS011;63966;47.914;22.266;2023-01-31T11:06:53;9.77;;;4.10;;
75386;SDS011;63966;47.914;22.266;2023-01-31T11:09:58;10.07;;;4.20;;
75386;SDS011;63966;47.914;22.266;2023-01-31T11:13:21;11.07;;;4.35;;
75386;SDS011;63966;47.914;22.266;2023-01-31T11:16:32;9.93;;;4.30;;
75386;SDS011;63966;47.914;22.266;2023-01-31T11:19:45;19.97;;;6.90;;
75386;SDS011;63966;47.914;22.266;2023-01-31T11:22:53;12.20;;;4.05;;
75386;SDS011;63966;47.914;22.266;2023-01-31T11:25:58;10.65;;;4.72;;
75386;SDS011;63966;47.914;22.266;2023-01-31T11:29:08;10.63;;;3.38;;
75386;SDS011;63966;47.914;22.266;2023-01-31T11:32:23;7.10;;;2.47;;
75386;SDS011;63966;47.914;22.266;2023-01-31T11:35:31;8.00;;;2.58;;
75386;SDS011;63966;47.914;22.266;2023-01-31T11:38:38;9.73;;;2.70;;
75386;SDS011;63966;47.914;22.266;2023-01-31T11:41:42;11.13;;;3.80;;
75386;SDS011;63966;47.914;22.266;2023-01-31T11:44:55;9.30;;;2.45;;
75386;SDS011;63966;47.914;22.266;2023-01-31T11:48:06;7.93;;;3.17;;
75386;SDS011;63966;47.914;22.266;2023-01-31T11:51:24;12.80;;;3.17;;
75386;SDS011;63966;47.914;22.266;2023-01-31T11:54:32;12.98;;;3.33;;
75386;SDS011;63966;47.914;22.266;2023-01-31T11:57:37;11.85;;;3.70;;
75386;SDS011;63966;47.914;22.266;2023-01-31T12:00:52;8.38;;;2.72;;
75386;SDS011;63966;47.914;22.266;2023-01-31T12:04:18;16.40;;;5.73;;
75386;SDS011;63966;47.914;22.266;2023-01-31T12:07:27;8.20;;;2.80;;
75386;SDS011;63966;47.914;22.266;2023-01-31T12:10:44;8.80;;;2.67;;
75386;SDS011;63966;47.914;22.266;2023-01-31T12:13:49;8.70;;;3.33;;
75386;SDS011;63966;47.914;22.266;2023-01-31T12:17:02;10.73;;;3.90;;
75386;SDS011;63966;47.914;22.266;2023-01-31T12:20:09;15.07;;;4.93;;
75386;SDS011;63966;47.914;22.266;2023-01-31T12:23:35;9.10;;;3.30;;
75386;SDS011;63966;47.914;22.266;2023-01-31T12:36:13;9.25;;;2.75;;
75386;SDS011;63966;47.914;22.266;2023-01-31T12:39:53;90.37;;;25.83;;
75386;SDS011;63966;47.914;22.266;2023-01-31T12:42:48;25.57;;;8.10;;
75386;SDS011;63966;47.914;22.266;2023-01-31T12:46:04;28.50;;;9.10;;
75386;SDS011;63966;47.914;22.266;2023-01-31T12:52:53;9.05;;;2.47;;
75386;SDS011;63966;47.914;22.266;2023-01-31T13:06:36;20.73;;;6.18;;
75386;SDS011;63966;47.914;22.266;2023-01-31T13:09:50;11.80;;;4.60;;
75386;SDS011;63966;47.914;22.266;2023-01-31T13:12:55;7.97;;;3.20;;
75386;SDS011;63966;47.914;22.266;2023-01-31T13:19:18;11.00;;;3.63;;
75386;SDS011;63966;47.914;22.266;2023-01-31T13:25:46;8.48;;;3.47;;
75386;SDS011;63966;47.914;22.266;2023-01-31T13:29:04;9.37;;;3.57;;
75386;SDS011;63966;47.914;22.266;2023-01-31T13:32:41;9.13;;;4.00;;
75386;SDS011;63966;47.914;22.266;2023-01-31T13:39:22;13.57;;;5.05;;
75386;SDS011;63966;47.914;22.266;2023-01-31T13:42:34;10.85;;;3.95;;
75386;SDS011;63966;47.914;22.266;2023-01-31T13:45:40;10.93;;;4.17;;
75386;SDS011;63966;47.914;22.266;2023-01-31T13:49:04;8.52;;;3.42;;
75386;SDS011;63966;47.914;22.266;2023-01-31T13:52:27;10.77;;;3.42;;
75386;SDS011;63966;47.914;22.266;2023-01-31T13:55:44;13.45;;;3.17;;
75386;SDS011;63966;47.914;22.266;2023-01-31T13:58:50;9.07;;;3.70;;
75386;SDS011;63966;47.914;22.266;2023-01-31T14:01:57;9.23;;;3.10;;
75386;SDS011;63966;47.914;22.266;2023-01-31T14:05:04;6.95;;;2.55;;
75386;SDS011;63966;47.914;22.266;2023-01-31T14:11:54;8.77;;;1.75;;
75386;SDS011;63966;47.914;22.266;2023-01-31T14:18:50;8.63;;;3.43;;
75386;SDS011;63966;47.914;22.266;2023-01-31T14:21:55;13.57;;;3.95;;
75386;SDS011;63966;47.914;22.266;2023-01-31T14:28:15;8.88;;;3.17;;
75386;SDS011;63966;47.914;22.266;2023-01-31T14:31:19;9.68;;;3.95;;
75386;SDS011;63966;47.914;22.266;2023-01-31T14:34:27;7.43;;;2.87;;
75386;SDS011;63966;47.914;22.266;2023-01-31T14:58:27;16.40;;;6.13;;
75386;SDS011;63966;47.914;22.266;2023-01-31T15:01:35;14.52;;;5.10;;
75386;SDS011;63966;47.914;22.266;2023-01-31T15:04:39;20.70;;;8.35;;
75386;SDS011;63966;47.914;22.266;2023-01-31T15:14:45;8.45;;;3.35;;
75386;SDS011;63966;47.914;22.266;2023-01-31T15:17:50;11.88;;;5.25;;
75386;SDS011;63966;47.914;22.266;2023-01-31T15:20:56;24.20;;;10.40;;
75386;SDS011;63966;47.914;22.266;2023-01-31T15:24:02;14.53;;;7.63;;
75386;SDS011;63966;47.914;22.266;2023-01-31T15:27:12;15.57;;;7.57;;
75386;SDS011;63966;47.914;22.266;2023-01-31T15:30:24;18.40;;;7.68;;
75386;SDS011;63966;47.914;22.266;2023-01-31T15:33:31;17.95;;;9.00;;
75386;SDS011;63966;47.914;22.266;2023-01-31T15:36:43;17.23;;;9.25;;
75386;SDS011;63966;47.914;22.266;2023-01-31T15:40:18;17.30;;;10.23;;
75386;SDS011;63966;47.914;22.266;2023-01-31T15:43:25;17.52;;;9.18;;
75386;SDS011;63966;47.914;22.266;2023-01-31T15:46:29;18.40;;;8.57;;
75386;SDS011;63966;47.914;22.266;2023-01-31T15:49:40;17.38;;;7.88;;
75386;SDS011;63966;47.914;22.266;2023-01-31T15:52:45;19.95;;;9.15;;
75386;SDS011;63966;47.914;22.266;2023-01-31T15:55:49;22.10;;;12.07;;
75386;SDS011;63966;47.914;22.266;2023-01-31T15:58:56;23.83;;;13.77;;
75386;SDS011;63966;47.914;22.266;2023-01-31T16:02:01;24.63;;;12.63;;
75386;SDS011;63966;47.914;22.266;2023-01-31T16:05:14;27.10;;;14.07;;
75386;SDS011;63966;47.914;22.266;2023-01-31T16:08:31;22.77;;;12.35;;
75386;SDS011;63966;47.914;22.266;2023-01-31T16:11:36;21.93;;;12.07;;
75386;SDS011;63966;47.914;22.266;2023-01-31T16:14:41;33.00;;;16.88;;
75386;SDS011;63966;47.914;22.266;2023-01-31T16:17:47;37.97;;;18.42;;
75386;SDS011;63966;47.914;22.266;2023-01-31T16:20:53;38.33;;;19.00;;
75386;SDS011;63966;47.914;22.266;2023-01-31T16:27:18;32.43;;;15.07;;
75386;SDS011;63966;47.914;22.266;2023-01-31T16:30:22;30.67;;;16.70;;
75386;SDS011;63966;47.914;22.266;2023-01-31T16:33:26;32.60;;;17.70;;
75386;SDS011;63966;47.914;22.266;2023-01-31T16:36:31;39.47;;;18.58;;
75386;SDS011;63966;47.914;22.266;2023-01-31T16:39:54;37.75;;;18.30;;
75386;SDS011;63966;47.914;22.266;2023-01-31T16:43:22;52.73;;;28.03;;
75386;SDS011;63966;47.914;22.266;2023-01-31T16:46:38;49.75;;;25.30;;
75386;SDS011;63966;47.914;22.266;2023-01-31T16:49:45;114.88;;;47.42;;
75386;SDS011;63966;47.914;22.266;2023-01-31T16:52:51;188.73;;;85.78;;
75386;SDS011;63966;47.914;22.266;2023-01-31T16:56:16;173.70;;;75.70;;
75386;SDS011;63966;47.914;22.266;2023-01-31T17:02:39;209.02;;;82.68;;
75386;SDS011;63966;47.914;22.266;2023-01-31T17:05:43;159.55;;;62.67;;
75386;SDS011;63966;47.914;22.266;2023-01-31T17:08:49;131.95;;;53.28;;
75386;SDS011;63966;47.914;22.266;2023-01-31T17:11:53;125.00;;;50.80;;
75386;SDS011;63966;47.914;22.266;2023-01-31T17:14:58;147.70;;;56.37;;
75386;SDS011;63966;47.914;22.266;2023-01-31T17:18:05;121.22;;;54.28;;
75386;SDS011;63966;47.914;22.266;2023-01-31T17:21:10;126.32;;;54.95;;
75386;SDS011;63966;47.914;22.266;2023-01-31T17:24:17;121.43;;;55.60;;
75386;SDS011;63966;47.914;22.266;2023-01-31T17:27:24;126.15;;;55.45;;
75386;SDS011;63966;47.914;22.266;2023-01-31T17:30:27;119.57;;;56.00;;
75386;SDS011;63966;47.914;22.266;2023-01-31T17:33:32;109.93;;;48.35;;
75386;SDS011;63966;47.914;22.266;2023-01-31T17:36:36;99.25;;;47.00;;
75386;SDS011;63966;47.914;22.266;2023-01-31T17:39:40;94.53;;;40.03;;
75386;SDS011;63966;47.914;22.266;2023-01-31T17:42:46;138.27;;;52.95;;
75386;SDS011;63966;47.914;22.266;2023-01-31T17:45:51;125.73;;;46.67;;
75386;SDS011;63966;47.914;22.266;2023-01-31T17:48:54;86.30;;;35.92;;
75386;SDS011;63966;47.914;22.266;2023-01-31T17:51:58;74.72;;;31.35;;
75386;SDS011;63966;47.914;22.266;2023-01-31T17:55:03;73.38;;;31.88;;
75386;SDS011;63966;47.914;22.266;2023-01-31T17:58:13;66.70;;;29.92;;
75386;SDS011;63966;47.914;22.266;2023-01-31T18:01:19;55.37;;;26.50;;
75386;SDS011;63966;47.914;22.266;2023-01-31T18:04:23;65.35;;;27.00;;
75386;SDS011;63966;47.914;22.266;2023-01-31T18:07:27;79.55;;;31.85;;
75386;SDS011;63966;47.914;22.266;2023-01-31T18:10:30;89.10;;;32.65;;
75386;SDS011;63966;47.914;22.266;2023-01-31T18:13:35;80.28;;;33.05;;
75386;SDS011;63966;47.914;22.266;2023-01-31T18:16:39;77.93;;;31.23;;
75386;SDS011;63966;47.914;22.266;2023-01-31T18:19:43;69.30;;;30.27;;
75386;SDS011;63966;47.914;22.266;2023-01-31T18:22:47;55.67;;;25.17;;
75386;SDS011;63966;47.914;22.266;2023-01-31T18:25:51;52.60;;;25.75;;
75386;SDS011;63966;47.914;22.266;2023-01-31T18:29:02;40.65;;;20.45;;
75386;SDS011;63966;47.914;22.266;2023-01-31T18:32:05;39.67;;;20.37;;
75386;SDS011;63966;47.914;22.266;2023-01-31T18:35:11;38.17;;;19.48;;
75386;SDS011;63966;47.914;22.266;2023-01-31T18:38:14;41.95;;;20.10;;
75386;SDS011;63966;47.914;22.266;2023-01-31T18:41:19;121.45;;;41.08;;
75386;SDS011;63966;47.914;22.266;2023-01-31T18:44:23;125.90;;;45.28;;
75386;SDS011;63966;47.914;22.266;2023-01-31T18:47:29;205.70;;;74.47;;
75386;SDS011;63966;47.914;22.266;2023-01-31T18:50:33;179.15;;;67.93;;
75386;SDS011;63966;47.914;22.266;2023-01-31T18:53:38;115.30;;;48.40;;
75386;SDS011;63966;47.914;22.266;2023-01-31T18:56:44;108.32;;;41.63;;
75386;SDS011;63966;47.914;22.266;2023-01-31T18:59:47;108.97;;;45.28;;
75386;SDS011;63966;47.914;22.266;2023-01-31T19:02:52;98.37;;;42.40;;
75386;SDS011;63966;47.914;22.266;2023-01-31T19:05:56;119.70;;;49.63;;
75386;SDS011;63966;47.914;22.266;2023-01-31T19:09:04;106.60;;;44.38;;
75386;SDS011;63966;47.914;22.266;2023-01-31T19:12:10;93.25;;;39.30;;
75386;SDS011;63966;47.914;22.266;2023-01-31T19:15:14;51.83;;;20.75;;
75386;SDS011;63966;47.914;22.266;2023-01-31T19:18:17;38.97;;;16.50;;
75386;SDS011;63966;47.914;22.266;2023-01-31T19:21:22;34.92;;;16.45;;
75386;SDS011;63966;47.914;22.266;2023-01-31T19:24:27;27.27;;;12.65;;
75386;SDS011;63966;47.914;22.266;2023-01-31T19:27:31;25.92;;;12.27;;
75386;SDS011;63966;47.914;22.266;2023-01-31T19:30:35;20.05;;;10.15;;
75386;SDS011;63966;47.914;22.266;2023-01-31T19:33:40;27.50;;;12.50;;
75386;SDS011;63966;47.914;22.266;2023-01-31T19:36:48;33.47;;;12.95;;
75386;SDS011;63966;47.914;22.266;2023-01-31T19:39:52;35.72;;;15.45;;
75386;SDS011;63966;47.914;22.266;2023-01-31T19:42:56;37.95;;;17.92;;
75386;SDS011;63966;47.914;22.266;2023-01-31T19:46:00;59.67;;;25.30;;
75386;SDS011;63966;47.914;22.266;2023-01-31T19:49:04;63.30;;;27.75;;
75386;SDS011;63966;47.914;22.266;2023-01-31T19:52:08;71.35;;;30.30;;
75386;SDS011;63966;47.914;22.266;2023-01-31T19:55:12;68.68;;;29.10;;
75386;SDS011;63966;47.914;22.266;2023-01-31T19:58:15;65.43;;;26.63;;
75386;SDS011;63966;47.914;22.266;2023-01-31T20:01:19;71.95;;;27.73;;
75386;SDS011;63966;47.914;22.266;2023-01-31T20:04:23;72.60;;;28.98;;
75386;SDS011;63966;47.914;22.266;2023-01-31T20:07:27;67.65;;;27.23;;
75386;SDS011;63966;47.914;22.266;2023-01-31T20:10:31;61.63;;;24.98;;
75386;SDS011;63966;47.914;22.266;2023-01-31T20:13:37;58.20;;;22.13;;